Haledon, NJ (07538)

12:45 AM EST on December 26, 2014 (GMT -0500)
North Haledon | Change Station
CLOSE
Current Station
Personal Weather Station
Location: North Haledon, NJ
Elevation: 226 ft
Nearby Weather Stations

Elev 226 ft 40.95 °N, 74.18 °W | Updated 1 second ago

Clear
Clear
38.6 °F
Feels Like 39 °F
N
0.0
Wind Variable Wind from NW
Gusts 1.0 mph

Today
High -- | Low -- °F
--% Chance of Precip.
Yesterday
High -- | Low -- °F
Precip. -- in
7:20 AM 4:34 PM
Waxing Crescent, 22% visible
Pressure 30.15 in
Visibility 10.0 miles
Clouds Clear
Windchill 39 °F
Dew Point 32 °F
Humidity 77%
Rainfall 0.00 in
Snow Depth Not available.
UV 0.0 out of 12
Pollen .10 out of 12
Air Quality Not available.
Flu Activity Not available.
METAR KCDW 260453Z AUTO 26003KT 10SM CLR 04/M02 A3013 RMK AO2 SLP209 T00441022 401720039 TSNO

More Conditions Fewer Conditions

Pressure 30.15 in
Visibility 10.0 miles
Clouds Clear
Windchill 39 °F
Dew Point 32 °F
Humidity 77%
Rainfall 0.00 in
Snow Depth Not available.
UV 0.0 out of 12
Pollen .10 out of 12
Air Quality Not available.
Flu Activity Not available.
METAR KCDW 260453Z AUTO 26003KT 10SM CLR 04/M02 A3013 RMK AO2 SLP209 T00441022 401720039 TSNO

More Conditions Fewer Conditions

10-Day Weather Forecast

Almanac

Astronomy

Dec. 26, 2014 Rise Set
Actual Time
Civil Twilight
Nautical Twilight
Astronomical Twilight
Moon
Length of Visible Light
Length of Day
Tomorrow will be .
, % of the Moon is Illuminated

Today's Extremes

State Highs State Lows

Community

WunderPhotos

Upload Photos

1,780,551 photos uploaded!

WunderBlogs® & News

Nearby

Air Quality

  Air Quality AQ Index Pollutant
Not available.

Snow Depth

Station Depth Elevation

Earthquake Activity

City Distance Mag. Time & Date
Minimum magnitude displayed is 2.5.

Coastal Water Temperatures

Place Temperature

Nearby Weather Stations